Terminal Aerodrome Forecast
Issued by NWS Raleigh/Durham, NC

Home | Current Version | Previous Version | Text Only | Print | Product List | Glossary On
Versions: 1 2 3 4 5 6 7 8 9 10 11 12 13 14 15 16 17 18 19 20 21 22 23 24 25
000
FTUS42 KRAH 071745
TAFFAY
TAF
KFAY 071745Z 0718/0818 01003KT P6SM SKC
     FM080600 11002KT P6SM SCT025 BKN035
      TEMPO 0807/0811 BKN015
     FM081500 32007KT P6SM BKN050=

USA.gov is the U.S. government's official web portal to all federal, state and local government web resources and services.